Lynn, Alabama
Current Conditions -  °F | °C
As of 9:56 AM on Saturday 25 Oct 2014 (Local Time) from K1M4 Reporting Station
Clear Clear  
Wind Chill: 64°   Ceiling: Unl
Heat Index: 64°   Visibility: 10mi
Dew Point: 55°   Wind: 6mph
Humidity: 72%   Direction: 290°WNW
Pressure: 30.16"   Gusts: NA
Location:  34.05°N, 87.55°W
Report Text: K1M4 251456Z AUTO 29005KT 10SM CLR 18/13 A3016 RMK AO2 53005 T01770127 SLP222
Loading
Personal Weather Stations






























Interactive Weather Map
Tropical Storm Tracking
New forecast layout! Learn more

10-Day Weather Forecast

Advertisements
Track Severe Weather on mobile